createdAt,value
2022-12-20T00:00:48.928Z,37.95
2022-12-20T00:01:51.519Z,38.85
2022-12-20T00:02:53.872Z,36.22
2022-12-20T00:03:58.368Z,33.60
2022-12-20T00:05:00.665Z,38.58
2022-12-20T00:06:03.272Z,34.13
2022-12-20T00:07:05.715Z,28.55
2022-12-20T00:08:09.887Z,30.05
2022-12-20T00:09:13.184Z,28.77
2022-12-20T00:10:15.443Z,35.97
2022-12-20T00:11:17.640Z,31.30
2022-12-20T00:12:19.867Z,34.67
2022-12-20T00:13:22.454Z,32.67
2022-12-20T00:14:24.917Z,32.55
2022-12-20T00:15:27.226Z,33.15
2022-12-20T00:16:30.019Z,33.35
2022-12-20T00:17:32.828Z,36.40
2022-12-20T00:18:36.188Z,31.95
2022-12-20T00:19:38.608Z,33.45
2022-12-20T00:20:40.884Z,33.05
2022-12-20T00:21:43.138Z,35.42
2022-12-20T00:22:45.736Z,31.35
2022-12-20T00:23:48.015Z,32.47
2022-12-20T00:24:50.268Z,34.58
2022-12-20T00:25:52.482Z,38.58
2022-12-20T00:26:54.740Z,39.60
2022-12-20T00:27:57.097Z,34.65
2022-12-20T00:29:00.261Z,33.40
2022-12-20T00:30:04.134Z,31.95
2022-12-20T00:31:08.148Z,31.08
2022-12-20T00:32:11.054Z,33.03
2022-12-20T00:33:13.423Z,30.90
2022-12-20T00:34:16.419Z,30.33
2022-12-20T00:35:18.909Z,31.88
2022-12-20T00:36:22.473Z,31.00
2022-12-20T00:37:24.765Z,25.30
2022-12-20T00:38:27.686Z,27.48
2022-12-20T00:39:29.943Z,27.77
2022-12-20T00:40:32.163Z,34.08
2022-12-20T00:41:34.900Z,33.80
2022-12-20T00:42:37.170Z,26.45
2022-12-20T00:43:41.267Z,28.98
2022-12-20T00:44:45.299Z,24.58
2022-12-20T00:45:47.542Z,26.67
2022-12-20T00:46:50.236Z,29.88
2022-12-20T00:47:52.697Z,29.70
2022-12-20T00:48:56.765Z,28.80
2022-12-20T00:49:59.013Z,32.05
2022-12-20T00:51:06.793Z,33.72
2022-12-20T00:52:10.090Z,28.30
2022-12-20T00:53:12.492Z,31.13
2022-12-20T00:54:14.730Z,28.63
2022-12-20T00:55:17.128Z,28.58
2022-12-20T00:56:21.097Z,25.00
2022-12-20T00:57:24.016Z,27.25
2022-12-20T00:58:28.096Z,26.65
2022-12-20T00:59:33.546Z,26.60
2022-12-20T01:00:35.892Z,24.52
2022-12-20T01:01:38.209Z,28.63
2022-12-20T01:02:40.559Z,24.00
2022-12-20T01:03:43.054Z,27.17
2022-12-20T01:04:45.418Z,24.95
2022-12-20T01:05:59.622Z,21.67
2022-12-20T01:07:02.520Z,23.50
2022-12-20T01:08:05.172Z,21.75
2022-12-20T01:09:07.378Z,21.88
2022-12-20T01:10:10.640Z,23.88
2022-12-20T01:11:17.249Z,22.02
2022-12-20T01:12:19.957Z,21.50
2022-12-20T01:13:22.250Z,23.98
2022-12-20T01:14:24.518Z,21.40
2022-12-20T01:15:26.779Z,24.60
2022-12-20T01:16:38.302Z,24.70
2022-12-20T01:17:41.157Z,22.65
2022-12-20T01:18:44.248Z,23.00
2022-12-20T01:19:46.519Z,24.25
2022-12-20T01:20:48.987Z,24.42
2022-12-20T01:21:51.286Z,24.02
2022-12-20T01:22:53.751Z,18.25
2022-12-20T01:23:56.764Z,20.13
2022-12-20T01:24:59.285Z,20.73
2022-12-20T01:26:05.042Z,21.80
2022-12-20T01:27:07.270Z,21.52
2022-12-20T01:28:10.066Z,21.88
2022-12-20T01:29:12.393Z,22.73
2022-12-20T01:30:15.507Z,26.63
2022-12-20T01:31:19.566Z,22.23
2022-12-20T01:32:21.900Z,22.35
2022-12-20T01:33:25.021Z,20.98
2022-12-20T01:34:27.714Z,18.75
2022-12-20T01:35:30.364Z,18.30
2022-12-20T01:36:35.061Z,21.42
2022-12-20T01:37:37.324Z,24.73
2022-12-20T01:38:39.647Z,22.40
2022-12-20T01:39:42.092Z,22.00
2022-12-20T01:40:44.318Z,21.15
2022-12-20T01:41:48.283Z,20.25
2022-12-20T01:42:50.729Z,21.27
2022-12-20T01:43:56.245Z,23.25
2022-12-20T01:44:59.575Z,24.23
2022-12-20T01:46:01.924Z,19.02
2022-12-20T01:47:04.331Z,20.63
2022-12-20T01:48:07.564Z,15.38
2022-12-20T01:49:28.701Z,17.83
2022-12-20T01:50:30.994Z,17.35
2022-12-20T01:51:36.987Z,16.20
2022-12-20T01:52:43.573Z,16.83
2022-12-20T01:53:49.002Z,18.33
2022-12-20T01:55:05.457Z,16.55
2022-12-20T01:56:10.049Z,19.67
2022-12-20T01:57:21.071Z,17.63
2022-12-20T01:58:23.411Z,17.52
2022-12-20T01:59:27.153Z,14.65
2022-12-20T02:00:30.668Z,21.02
